createdAt,value
2022-09-28T00:01:24.879Z,14.53
2022-09-28T00:03:57.605Z,14.57
2022-09-28T00:06:27.184Z,14.93
2022-09-28T00:08:56.128Z,13.67
2022-09-28T00:11:26.692Z,14.03
2022-09-28T00:13:57.882Z,12.80
2022-09-28T00:16:29.559Z,13.97
2022-09-28T00:18:58.172Z,14.40
2022-09-28T00:21:27.981Z,14.90
2022-09-28T00:24:15.283Z,15.47
2022-09-28T00:26:47.099Z,15.00
2022-09-28T00:29:19.161Z,13.70
2022-09-28T00:31:49.491Z,15.07
2022-09-28T00:34:18.049Z,14.67
2022-09-28T00:36:47.473Z,14.37
2022-09-28T00:39:17.467Z,15.87
2022-09-28T00:41:46.819Z,14.50
2022-09-28T00:44:40.706Z,14.90
2022-09-28T00:47:28.366Z,15.47
2022-09-28T00:50:00.490Z,14.23
2022-09-28T00:52:33.202Z,15.23
2022-09-28T00:55:05.622Z,14.93
2022-09-28T00:57:34.671Z,15.30
2022-09-28T01:00:06.316Z,15.40
2022-09-28T01:02:35.918Z,14.07
2022-09-28T01:05:06.478Z,15.20
2022-09-28T01:07:36.211Z,14.60
2022-09-28T01:10:05.934Z,15.50
2022-09-28T01:12:34.041Z,13.73
2022-09-28T01:15:03.293Z,14.57
2022-09-28T01:17:44.911Z,14.13
2022-09-28T01:20:58.173Z,15.27
2022-09-28T01:23:48.465Z,14.03
2022-09-28T01:26:38.142Z,14.93
2022-09-28T01:29:12.127Z,14.57
2022-09-28T01:31:46.570Z,14.60
2022-09-28T01:34:18.658Z,13.50
2022-09-28T01:36:51.362Z,14.13
2022-09-28T01:39:23.594Z,14.10
2022-09-28T01:41:58.250Z,14.70
2022-09-28T01:44:29.127Z,14.00
2022-09-28T01:47:03.724Z,13.63
2022-09-28T01:49:36.717Z,12.20
2022-09-28T01:52:10.439Z,14.07
2022-09-28T01:54:43.383Z,12.67
2022-09-28T01:57:18.702Z,11.77
2022-09-28T01:59:54.253Z,13.00
2022-09-28T02:02:27.854Z,12.17
2022-09-28T02:05:01.376Z,12.33
2022-09-28T02:07:36.081Z,11.47
2022-09-28T02:10:09.720Z,10.13
2022-09-28T02:12:42.627Z,10.07
2022-09-28T02:15:15.878Z,9.83
2022-09-28T02:17:44.766Z,9.47
2022-09-28T02:20:14.193Z,8.27
2022-09-28T02:22:48.927Z,8.00
2022-09-28T02:25:25.746Z,7.27
2022-09-28T02:27:59.957Z,7.43
2022-09-28T02:30:28.538Z,7.60
2022-09-28T02:33:00.870Z,7.27
2022-09-28T02:35:29.993Z,7.40
2022-09-28T02:37:58.642Z,7.07
2022-09-28T02:40:31.751Z,5.77
2022-09-28T02:43:12.853Z,5.50
2022-09-28T02:45:51.965Z,5.27
2022-09-28T02:48:44.249Z,5.40
2022-09-28T02:51:25.378Z,5.37
2022-09-28T02:54:07.490Z,5.57
2022-09-28T02:56:55.735Z,5.30
2022-09-28T02:59:36.409Z,5.53
2022-09-28T03:02:15.338Z,4.93
2022-09-28T03:04:50.150Z,5.50
2022-09-28T03:07:25.126Z,6.33
2022-09-28T03:10:00.545Z,5.00
2022-09-28T03:12:30.170Z,5.27
2022-09-28T03:15:11.963Z,5.43
2022-09-28T03:17:40.290Z,5.10
2022-09-28T03:20:11.260Z,4.80
2022-09-28T03:22:39.690Z,5.30
2022-09-28T03:25:09.153Z,4.97
2022-09-28T03:27:37.409Z,5.23
2022-09-28T03:30:07.204Z,5.10
2022-09-28T03:32:37.531Z,4.77
2022-09-28T03:35:08.477Z,5.40
2022-09-28T03:37:37.192Z,4.57
2022-09-28T03:40:06.190Z,4.30
2022-09-28T03:42:37.117Z,4.80
2022-09-28T03:45:06.085Z,4.47
2022-09-28T03:47:34.490Z,4.40
2022-09-28T03:50:04.184Z,4.27
2022-09-28T03:52:33.311Z,4.77
2022-09-28T03:55:01.411Z,4.17
2022-09-28T03:57:29.870Z,4.80
2022-09-28T03:59:58.066Z,4.73
2022-09-28T04:02:26.368Z,4.83
2022-09-28T04:04:54.882Z,4.97
2022-09-28T04:07:26.924Z,4.30
2022-09-28T04:09:59.300Z,4.77
2022-09-28T04:12:27.437Z,4.60
2022-09-28T04:14:55.493Z,4.23
2022-09-28T04:17:24.039Z,3.80
2022-09-28T04:19:52.342Z,4.50
2022-09-28T04:22:20.461Z,3.73
2022-09-28T04:24:50.329Z,3.60
2022-09-28T04:27:35.715Z,3.73
2022-09-28T04:30:04.639Z,3.73
2022-09-28T04:32:32.845Z,4.00
2022-09-28T04:35:00.928Z,4.20
2022-09-28T04:37:31.415Z,3.87
2022-09-28T04:40:01.012Z,4.50
2022-09-28T04:42:29.145Z,3.80
2022-09-28T04:44:58.886Z,4.47
2022-09-28T04:47:26.982Z,4.77
2022-09-28T04:49:55.075Z,4.30
2022-09-28T04:52:23.628Z,4.47
2022-09-28T04:54:51.746Z,3.93
2022-09-28T04:57:21.252Z,3.90
2022-09-28T04:59:49.703Z,3.70
2022-09-28T05:02:17.840Z,3.83
2022-09-28T05:04:46.030Z,4.00
2022-09-28T05:07:14.553Z,3.80
2022-09-28T05:09:42.687Z,3.30
2022-09-28T05:12:10.770Z,3.53
2022-09-28T05:14:40.964Z,3.30
2022-09-28T05:17:10.494Z,3.37
2022-09-28T05:19:38.661Z,3.50
2022-09-28T05:22:11.599Z,3.53
2022-09-28T05:24:39.719Z,3.20
2022-09-28T05:27:07.991Z,3.20
2022-09-28T05:29:36.123Z,3.57
2022-09-28T05:32:05.682Z,3.50
2022-09-28T05:34:34.334Z,3.33
2022-09-28T05:37:02.773Z,3.47
2022-09-28T05:39:30.956Z,3.10
2022-09-28T05:41:59.151Z,2.90
2022-09-28T05:44:27.358Z,2.67
2022-09-28T05:46:55.461Z,3.20
2022-09-28T05:49:25.059Z,3.43
2022-09-28T05:51:53.440Z,3.00
2022-09-28T05:54:21.555Z,3.17
2022-09-28T05:56:49.784Z,3.07
2022-09-28T05:59:18.267Z,2.80
2022-09-28T06:01:46.382Z,2.93
2022-09-28T06:04:16.237Z,3.00
2022-09-28T06:06:46.043Z,3.00
2022-09-28T06:09:14.185Z,2.87
2022-09-28T06:11:42.465Z,2.30
2022-09-28T06:14:12.574Z,2.73
2022-09-28T06:16:43.857Z,2.90
2022-09-28T06:19:13.354Z,2.90
2022-09-28T06:21:41.533Z,2.93
2022-09-28T06:24:11.082Z,2.73
2022-09-28T06:26:39.720Z,2.60
2022-09-28T06:29:07.910Z,2.57
2022-09-28T06:31:36.068Z,2.50
2022-09-28T06:34:04.409Z,2.67
2022-09-28T06:36:32.555Z,2.83
2022-09-28T06:39:00.808Z,2.30
2022-09-28T06:41:30.655Z,2.63
2022-09-28T06:43:58.891Z,2.40
2022-09-28T06:46:27.153Z,2.60
2022-09-28T06:48:55.577Z,2.87
2022-09-28T06:51:25.031Z,2.37
2022-09-28T06:53:53.965Z,2.20
2022-09-28T06:56:22.504Z,2.37
2022-09-28T06:58:52.105Z,2.40
2022-09-28T07:01:20.560Z,2.37
2022-09-28T07:03:53.613Z,2.60
2022-09-28T07:08:33.347Z,2.40
2022-09-28T07:11:06.359Z,1.90
2022-09-28T07:13:49.434Z,2.27
2022-09-28T07:16:24.072Z,2.73
2022-09-28T07:18:56.418Z,2.40
2022-09-28T07:21:30.112Z,2.00
2022-09-28T07:24:00.890Z,2.30
2022-09-28T07:26:36.665Z,2.27
2022-09-28T07:29:04.965Z,2.57
2022-09-28T07:31:35.460Z,1.73
2022-09-28T07:34:04.063Z,2.03
2022-09-28T07:36:35.226Z,2.23
2022-09-28T07:39:05.277Z,2.00
2022-09-28T07:41:32.643Z,2.20
2022-09-28T07:44:06.024Z,2.03
2022-09-28T07:46:34.573Z,2.40
2022-09-28T07:49:08.361Z,2.20
2022-09-28T07:51:39.762Z,1.90
2022-09-28T07:54:09.414Z,2.23
2022-09-28T07:56:37.518Z,2.30
2022-09-28T07:59:06.146Z,2.17
2022-09-28T08:01:34.388Z,1.83
2022-09-28T08:04:03.027Z,2.17
2022-09-28T08:06:34.185Z,1.87
2022-09-28T08:09:02.454Z,2.00
2022-09-28T08:11:32.045Z,2.73
2022-09-28T08:14:00.850Z,1.73
2022-09-28T08:16:30.228Z,1.70
2022-09-28T08:19:00.448Z,1.80
2022-09-28T08:21:45.945Z,1.73
2022-09-28T08:24:15.669Z,1.87
2022-09-28T08:26:46.146Z,1.90
2022-09-28T08:29:15.322Z,1.83
2022-09-28T08:31:43.631Z,1.60
2022-09-28T08:34:12.004Z,1.67
2022-09-28T08:36:40.947Z,1.93
2022-09-28T08:39:09.133Z,1.63
2022-09-28T08:41:45.361Z,1.73
2022-09-28T08:44:25.589Z,1.43
2022-09-28T08:46:58.095Z,1.40
2022-09-28T08:49:31.069Z,1.77
2022-09-28T08:52:02.274Z,1.67
2022-09-28T08:54:39.511Z,1.40
2022-09-28T08:57:13.811Z,1.70
2022-09-28T08:59:49.781Z,1.47
2022-09-28T09:02:24.526Z,1.30
2022-09-28T09:04:53.313Z,1.40
2022-09-28T09:07:50.226Z,1.50
2022-09-28T09:10:36.494Z,1.50
2022-09-28T09:13:14.821Z,1.70
2022-09-28T09:15:54.127Z,1.50
2022-09-28T09:18:31.803Z,2.07
2022-09-28T09:21:02.995Z,1.57
2022-09-28T09:23:38.867Z,1.50
2022-09-28T09:26:21.473Z,1.50
2022-09-28T09:29:15.847Z,1.43
2022-09-28T09:32:03.089Z,1.30
2022-09-28T09:35:12.976Z,1.30
2022-09-28T09:38:03.048Z,1.83
2022-09-28T09:40:50.623Z,1.60
2022-09-28T09:43:59.067Z,1.43
2022-09-28T09:46:36.220Z,1.30
2022-09-28T09:49:16.725Z,1.53
2022-09-28T09:51:49.276Z,1.63
2022-09-28T09:54:24.077Z,1.53
2022-09-28T09:56:58.061Z,1.70
2022-09-28T09:59:33.760Z,1.37
2022-09-28T10:02:05.426Z,1.37
2022-09-28T10:04:42.061Z,1.33
2022-09-28T10:07:14.520Z,1.87
2022-09-28T10:09:46.771Z,1.60
2022-09-28T10:12:20.152Z,1.77
2022-09-28T10:14:48.449Z,1.43
2022-09-28T10:17:20.180Z,1.33
2022-09-28T10:19:50.135Z,1.40
2022-09-28T10:22:23.526Z,1.40
2022-09-28T10:24:57.745Z,1.90
2022-09-28T10:27:29.896Z,1.60
2022-09-28T10:30:03.244Z,1.47
2022-09-28T10:32:39.862Z,1.50
2022-09-28T10:35:25.801Z,2.93
2022-09-28T10:37:59.379Z,1.80
2022-09-28T10:40:41.501Z,1.67
2022-09-28T10:43:19.766Z,1.30
2022-09-28T10:45:48.782Z,1.20
2022-09-28T10:48:21.718Z,1.43
2022-09-28T10:51:02.532Z,1.30
2022-09-28T10:53:30.946Z,1.50
2022-09-28T10:56:02.233Z,1.60
2022-09-28T10:58:36.555Z,1.60
2022-09-28T11:01:09.487Z,1.33
2022-09-28T11:03:50.134Z,1.70
2022-09-28T11:06:25.858Z,1.40
2022-09-28T11:08:56.239Z,1.27
2022-09-28T11:11:25.726Z,2.00
2022-09-28T11:13:56.997Z,1.40
2022-09-28T11:16:29.697Z,1.30
2022-09-28T11:18:59.779Z,1.27
2022-09-28T11:21:32.682Z,1.50
2022-09-28T11:24:08.623Z,1.20
2022-09-28T11:26:41.984Z,1.60
2022-09-28T11:29:23.226Z,1.70
2022-09-28T11:31:52.694Z,1.40
2022-09-28T11:34:41.499Z,1.30
2022-09-28T11:37:35.343Z,1.30
2022-09-28T11:40:16.918Z,1.30
2022-09-28T11:42:54.453Z,1.50
2022-09-28T11:45:39.424Z,1.30
2022-09-28T11:48:11.674Z,1.30
2022-09-28T11:50:49.342Z,1.30
2022-09-28T11:53:28.526Z,1.50
2022-09-28T11:56:03.265Z,1.47
2022-09-28T11:58:39.015Z,1.23
2022-09-28T12:01:19.033Z,1.40
2022-09-28T12:03:52.754Z,1.70
2022-09-28T12:06:26.253Z,1.23
2022-09-28T12:09:03.494Z,1.47
2022-09-28T12:11:37.014Z,1.40
2022-09-28T12:14:12.190Z,1.30
2022-09-28T12:17:05.035Z,1.50
2022-09-28T12:19:40.053Z,1.50
2022-09-28T12:22:14.868Z,1.40
2022-09-28T12:24:47.629Z,1.37
2022-09-28T12:27:19.568Z,1.23
2022-09-28T12:29:55.060Z,1.30
2022-09-28T12:32:30.533Z,1.10
2022-09-28T12:34:59.137Z,1.07
2022-09-28T12:37:54.005Z,1.17
2022-09-28T12:40:47.307Z,1.30
2022-09-28T12:43:46.002Z,0.90
2022-09-28T12:46:39.458Z,1.40
2022-09-28T12:55:42.866Z,0.97
2022-09-28T12:58:28.526Z,1.30
2022-09-28T13:01:04.663Z,1.30
2022-09-28T13:03:48.550Z,1.50
2022-09-28T13:06:45.854Z,1.23
2022-09-28T13:09:23.792Z,1.43
2022-09-28T13:12:24.687Z,1.33
2022-09-28T13:15:16.962Z,1.20
2022-09-28T13:18:00.984Z,1.20
2022-09-28T13:20:39.669Z,1.27
2022-09-28T13:23:15.662Z,1.20
2022-09-28T13:25:49.152Z,1.43
2022-09-28T13:28:21.315Z,1.30
2022-09-28T13:30:55.970Z,1.00
2022-09-28T13:33:33.820Z,1.00
2022-09-28T13:36:05.865Z,1.40
2022-09-28T13:38:55.683Z,1.30
2022-09-28T13:41:29.245Z,1.30
2022-09-28T13:44:22.256Z,1.27
2022-09-28T13:47:07.907Z,1.30
2022-09-28T13:49:45.789Z,1.17
2022-09-28T13:52:21.752Z,1.00
2022-09-28T13:55:09.436Z,1.30
2022-09-28T13:57:46.648Z,1.10
2022-09-28T14:00:21.873Z,1.27
2022-09-28T14:02:59.052Z,1.10
2022-09-28T14:05:48.731Z,1.30
2022-09-28T14:08:28.330Z,1.37
2022-09-28T14:10:57.668Z,1.17
2022-09-28T14:14:03.264Z,1.10
2022-09-28T14:16:33.142Z,1.13
2022-09-28T14:19:08.422Z,1.10
2022-09-28T14:21:59.145Z,1.40
2022-09-28T14:24:45.587Z,1.00
2022-09-28T14:27:40.237Z,1.10
2022-09-28T14:30:20.347Z,1.03
2022-09-28T14:32:57.006Z,1.20
2022-09-28T14:35:34.053Z,0.83
2022-09-28T14:38:24.420Z,0.80
2022-09-28T14:41:10.870Z,1.07
2022-09-28T14:44:00.196Z,1.23
2022-09-28T14:46:32.936Z,0.77
2022-09-28T14:49:03.359Z,0.80
2022-09-28T14:52:08.520Z,0.77
2022-09-28T14:54:46.505Z,1.20
2022-09-28T14:57:20.519Z,0.93
2022-09-28T14:59:48.716Z,1.10
2022-09-28T15:02:25.111Z,0.90
2022-09-28T15:04:56.678Z,0.87
2022-09-28T15:07:27.298Z,1.00
2022-09-28T15:09:58.433Z,1.10
2022-09-28T15:12:28.647Z,0.90
2022-09-28T15:14:59.557Z,1.10
2022-09-28T15:17:32.099Z,1.00
2022-09-28T15:20:22.169Z,1.00
2022-09-28T15:22:51.921Z,1.13
2022-09-28T15:25:24.455Z,1.00
2022-09-28T15:27:55.394Z,1.30
2022-09-28T15:30:27.446Z,1.60
2022-09-28T15:33:17.715Z,1.03
2022-09-28T15:35:47.921Z,1.23
2022-09-28T15:38:18.392Z,1.77
2022-09-28T15:40:48.627Z,1.20
2022-09-28T15:43:27.146Z,1.30
2022-09-28T15:46:02.764Z,1.30
2022-09-28T15:48:34.387Z,1.40
2022-09-28T15:51:11.055Z,1.50
2022-09-28T15:53:44.585Z,1.50
2022-09-28T15:56:14.193Z,1.30
2022-09-28T15:58:43.018Z,1.60
2022-09-28T16:01:38.781Z,1.27
2022-09-28T16:04:38.669Z,1.20
2022-09-28T16:07:23.636Z,1.43
2022-09-28T16:09:58.446Z,1.10
2022-09-28T16:12:33.800Z,1.13
2022-09-28T16:15:07.475Z,1.47
2022-09-28T16:17:38.074Z,1.17
2022-09-28T16:20:22.585Z,1.37
2022-09-28T16:22:53.918Z,1.30
2022-09-28T16:25:25.338Z,1.70
2022-09-28T16:27:56.766Z,1.70
2022-09-28T16:30:27.386Z,1.37
2022-09-28T16:32:57.741Z,1.60
2022-09-28T16:35:28.507Z,1.60
2022-09-28T16:38:11.836Z,1.47
2022-09-28T16:40:42.605Z,1.30
2022-09-28T16:43:20.507Z,1.37
2022-09-28T16:45:48.705Z,1.30
2022-09-28T16:48:20.471Z,1.30
2022-09-28T16:50:48.955Z,1.47
2022-09-28T16:53:35.669Z,1.40
2022-09-28T16:56:05.347Z,1.40
2022-09-28T16:58:39.079Z,1.60
2022-09-28T17:01:09.011Z,1.27
2022-09-28T17:03:37.574Z,1.27
2022-09-28T17:06:07.479Z,1.43
2022-09-28T17:08:35.933Z,1.40
2022-09-28T17:11:24.285Z,1.60
2022-09-28T17:13:56.861Z,1.60
2022-09-28T17:16:51.002Z,2.00
2022-09-28T17:19:21.227Z,1.87
2022-09-28T17:21:50.561Z,1.70
2022-09-28T17:24:19.112Z,1.53
2022-09-28T17:26:49.312Z,1.57
2022-09-28T17:29:19.496Z,1.67
2022-09-28T17:31:49.027Z,2.00
2022-09-28T17:34:18.024Z,2.10
2022-09-28T17:36:46.819Z,2.00
2022-09-28T17:39:16.837Z,1.80
2022-09-28T17:41:45.610Z,1.90
2022-09-28T17:44:16.534Z,2.47
2022-09-28T17:46:49.513Z,2.33
2022-09-28T17:49:18.813Z,2.50
2022-09-28T17:51:47.091Z,2.50
2022-09-28T17:54:17.195Z,2.40
2022-09-28T17:56:46.237Z,2.20
2022-09-28T17:59:17.343Z,2.57
2022-09-28T18:01:48.569Z,2.80
2022-09-28T18:04:39.816Z,2.60
2022-09-28T18:07:05.882Z,2.80
2022-09-28T18:09:34.113Z,3.27
2022-09-28T18:12:06.418Z,2.93
2022-09-28T18:14:35.846Z,3.03
2022-09-28T18:17:05.568Z,3.10
2022-09-28T18:19:33.777Z,2.93
2022-09-28T18:22:02.403Z,3.60
2022-09-28T18:24:32.457Z,3.63
2022-09-28T18:27:00.837Z,4.03
2022-09-28T18:29:33.028Z,3.67
2022-09-28T18:32:01.979Z,4.23
2022-09-28T18:34:31.702Z,4.07
2022-09-28T18:36:59.770Z,3.50
2022-09-28T18:39:28.094Z,3.60
2022-09-28T18:41:56.655Z,3.53
2022-09-28T18:44:24.908Z,3.90
2022-09-28T18:46:53.001Z,4.20
2022-09-28T18:49:21.554Z,4.27
2022-09-28T18:51:51.095Z,4.00
2022-09-28T18:54:19.235Z,4.57
2022-09-28T18:56:47.933Z,5.20
2022-09-28T18:59:16.146Z,5.30
2022-09-28T19:01:44.501Z,4.50
2022-09-28T19:04:13.680Z,4.30
2022-09-28T19:06:44.501Z,4.20
2022-09-28T19:09:14.679Z,4.53
2022-09-28T19:11:42.802Z,4.17
2022-09-28T19:14:15.043Z,4.67
2022-09-28T19:16:44.924Z,4.87
2022-09-28T19:19:15.018Z,4.90
2022-09-28T19:21:44.347Z,5.07
2022-09-28T19:24:16.674Z,5.17
2022-09-28T19:26:46.410Z,5.00
2022-09-28T19:29:15.674Z,4.97
2022-09-28T19:31:44.832Z,4.90
2022-09-28T19:34:14.415Z,4.90
2022-09-28T19:36:42.944Z,5.23
2022-09-28T19:39:16.363Z,4.60
2022-09-28T19:41:49.569Z,4.93
2022-09-28T19:44:24.899Z,4.90
2022-09-28T19:46:55.361Z,4.50
2022-09-28T19:49:25.869Z,4.87
2022-09-28T19:52:14.292Z,4.47
2022-09-28T19:54:45.803Z,4.60
2022-09-28T19:57:15.971Z,4.40
2022-09-28T19:59:44.352Z,4.73
2022-09-28T20:02:13.415Z,4.43
2022-09-28T20:04:41.592Z,4.30
2022-09-28T20:07:09.799Z,4.20
2022-09-28T20:09:38.093Z,4.33
2022-09-28T20:12:07.986Z,4.83
2022-09-28T20:14:39.469Z,5.60
2022-09-28T20:17:08.943Z,4.43
2022-09-28T20:19:37.062Z,4.60
2022-09-28T20:22:05.328Z,4.70
2022-09-28T20:24:34.214Z,5.23
2022-09-28T20:27:02.824Z,4.83
2022-09-28T20:29:33.492Z,5.07
2022-09-28T20:32:04.104Z,4.90
2022-09-28T20:34:34.006Z,4.70
2022-09-28T20:37:02.610Z,4.40
2022-09-28T20:39:30.802Z,4.87
2022-09-28T20:41:59.000Z,4.70
2022-09-28T20:44:27.144Z,4.70
2022-09-28T20:46:56.807Z,4.57
2022-09-28T20:49:27.252Z,5.07
2022-09-28T20:51:55.574Z,4.53
2022-09-28T20:54:24.042Z,4.00
2022-09-28T20:56:52.785Z,6.17
2022-09-28T20:59:22.871Z,5.10
2022-09-28T21:01:51.332Z,5.60
2022-09-28T21:04:21.247Z,5.70
2022-09-28T21:06:49.502Z,5.17
2022-09-28T21:09:17.709Z,5.47
2022-09-28T21:11:46.433Z,5.33
2022-09-28T21:14:14.503Z,5.33
2022-09-28T21:16:42.970Z,5.77
2022-09-28T21:19:11.161Z,5.67
2022-09-28T21:21:40.761Z,5.20
2022-09-28T21:24:09.324Z,5.80
2022-09-28T21:26:39.090Z,5.63
2022-09-28T21:29:11.574Z,6.53
2022-09-28T21:31:42.086Z,5.40
2022-09-28T21:34:14.126Z,6.03
2022-09-28T21:36:44.150Z,5.70
2022-09-28T21:39:12.250Z,5.77
2022-09-28T21:41:41.025Z,6.50
2022-09-28T21:44:09.748Z,5.80
2022-09-28T21:46:39.243Z,5.47
2022-09-28T21:49:09.161Z,5.27
2022-09-28T21:51:38.128Z,5.80
2022-09-28T21:54:08.204Z,5.47
2022-09-28T21:56:36.665Z,6.03
2022-09-28T21:59:04.967Z,6.10
2022-09-28T22:01:33.339Z,6.00
2022-09-28T22:04:01.905Z,5.43
2022-09-28T22:06:30.156Z,5.70
2022-09-28T22:08:58.631Z,5.67
2022-09-28T22:11:29.621Z,5.13
2022-09-28T22:14:00.329Z,5.90
2022-09-28T22:16:30.596Z,5.43
2022-09-28T22:18:59.147Z,5.70
2022-09-28T22:21:28.953Z,5.67
2022-09-28T22:24:01.274Z,6.17
2022-09-28T22:26:33.022Z,5.97
2022-09-28T22:29:02.831Z,5.80
2022-09-28T22:31:33.800Z,5.63
2022-09-28T22:34:02.417Z,5.50
2022-09-28T22:36:31.028Z,5.57
2022-09-28T22:38:59.874Z,5.27
2022-09-28T22:41:28.404Z,5.00
2022-09-28T22:43:58.704Z,5.33
2022-09-28T22:46:29.395Z,5.00
2022-09-28T22:48:59.473Z,5.23
2022-09-28T22:51:30.130Z,5.53
2022-09-28T22:53:59.358Z,4.40
2022-09-28T22:56:31.133Z,4.63
2022-09-28T22:59:00.831Z,4.10
2022-09-28T23:01:31.320Z,4.43
2022-09-28T23:04:00.168Z,4.00
2022-09-28T23:06:30.812Z,3.97
2022-09-28T23:08:59.367Z,3.80
2022-09-28T23:11:28.149Z,3.63
2022-09-28T23:13:57.657Z,3.60
2022-09-28T23:16:27.658Z,3.27
2022-09-28T23:18:57.154Z,3.60
2022-09-28T23:21:27.026Z,3.17
2022-09-28T23:23:57.025Z,3.67
2022-09-28T23:26:27.565Z,2.97
2022-09-28T23:28:56.591Z,3.00
2022-09-28T23:31:28.501Z,3.00
2022-09-28T23:34:00.636Z,3.13
2022-09-28T23:36:28.804Z,2.60
2022-09-28T23:38:57.230Z,2.70
2022-09-28T23:41:25.710Z,2.73
2022-09-28T23:43:53.937Z,2.50
2022-09-28T23:46:22.313Z,2.70
2022-09-28T23:48:52.097Z,2.17
2022-09-28T23:51:20.195Z,2.43
2022-09-28T23:53:48.522Z,2.43
2022-09-28T23:56:17.027Z,2.30
2022-09-28T23:58:45.254Z,2.40
